createdAt,value
2019-04-03T00:00:19.514Z,57.52
2019-04-03T00:01:19.550Z,57.78
2019-04-03T00:02:19.511Z,57.74
2019-04-03T00:03:19.513Z,57.92
2019-04-03T00:04:19.563Z,57.96
2019-04-03T00:05:19.538Z,57.89
2019-04-03T00:06:19.521Z,57.73
2019-04-03T00:07:19.503Z,58.05
2019-04-03T00:08:19.516Z,57.84
2019-04-03T00:09:19.525Z,57.96
2019-04-03T00:10:19.518Z,58.12
2019-04-03T00:11:19.522Z,57.73
2019-04-03T00:12:19.530Z,57.67
2019-04-03T00:13:19.497Z,57.93
2019-04-03T00:14:19.547Z,58.54
2019-04-03T00:15:19.585Z,58.58
2019-04-03T00:16:19.517Z,58.32
2019-04-03T00:17:19.553Z,58.48
2019-04-03T00:18:19.526Z,58.21
2019-04-03T00:19:19.506Z,57.73
2019-04-03T00:20:19.491Z,58.52
2019-04-03T00:21:20.244Z,58.63
2019-04-03T00:22:21.126Z,58.38
2019-04-03T00:23:20.596Z,58.44
2019-04-03T00:24:22.228Z,58.67
2019-04-03T00:25:20.597Z,58.54
2019-04-03T00:26:20.477Z,58.81
2019-04-03T00:27:21.952Z,59.77
2019-04-03T00:28:20.728Z,59.29
2019-04-03T00:29:20.697Z,59.41
2019-04-03T00:30:21.869Z,59.11
2019-04-03T00:31:19.675Z,59.14
2019-04-03T00:32:19.533Z,59.00
2019-04-03T00:33:19.548Z,59.08
2019-04-03T00:34:19.509Z,59.48
2019-04-03T00:35:19.529Z,59.99
2019-04-03T00:36:19.564Z,60.00
2019-04-03T00:37:19.528Z,60.42
2019-04-03T00:38:19.527Z,59.83
2019-04-03T00:39:19.546Z,60.21
2019-04-03T00:40:19.625Z,60.20
2019-04-03T00:41:19.544Z,60.28
2019-04-03T00:42:19.527Z,60.51
2019-04-03T00:43:19.525Z,60.67
2019-04-03T00:44:19.536Z,59.98
2019-04-03T00:45:19.552Z,59.82
2019-04-03T00:46:19.683Z,60.65
2019-04-03T00:47:19.561Z,61.22
2019-04-03T00:48:19.677Z,62.21
2019-04-03T00:49:19.532Z,61.47
2019-04-03T00:50:19.528Z,61.66
2019-04-03T00:51:19.557Z,61.55
2019-04-03T00:52:19.550Z,61.39
2019-04-03T00:53:19.568Z,61.08
2019-04-03T00:54:19.576Z,61.61
2019-04-03T00:55:19.531Z,61.82
2019-04-03T00:56:19.544Z,61.20
2019-04-03T00:57:19.569Z,61.60
2019-04-03T00:58:19.553Z,62.18
2019-04-03T00:59:19.665Z,62.63
2019-04-03T01:00:19.585Z,62.14
2019-04-03T01:01:19.545Z,62.01
2019-04-03T01:02:19.582Z,61.56
2019-04-03T01:03:19.635Z,61.99
2019-04-03T01:04:19.572Z,62.45
2019-04-03T01:05:19.580Z,62.50
2019-04-03T01:06:19.593Z,62.60
2019-04-03T01:07:19.592Z,62.50
2019-04-03T01:08:19.612Z,62.97
2019-04-03T01:09:19.656Z,62.67
2019-04-03T01:10:19.650Z,62.68
2019-04-03T01:11:19.650Z,63.13
2019-04-03T01:12:19.657Z,63.19
2019-04-03T01:13:19.668Z,63.13
2019-04-03T01:14:19.683Z,63.01
2019-04-03T01:15:19.733Z,62.50
2019-04-03T01:16:19.723Z,63.29
2019-04-03T01:17:19.725Z,62.83
2019-04-03T01:18:19.867Z,63.34
2019-04-03T01:19:19.739Z,63.56
2019-04-03T01:20:19.786Z,63.50
2019-04-03T01:21:19.857Z,63.68
2019-04-03T01:22:19.793Z,63.59
2019-04-03T01:23:19.759Z,63.78
2019-04-03T01:24:19.836Z,63.85
2019-04-03T01:25:19.806Z,64.08
2019-04-03T01:26:19.796Z,63.76
2019-04-03T01:27:19.855Z,64.20
2019-04-03T01:28:19.892Z,63.77
2019-04-03T01:29:19.880Z,63.08
2019-04-03T01:30:19.899Z,63.61
2019-04-03T01:31:19.881Z,63.52
2019-04-03T01:32:20.011Z,63.59
2019-04-03T01:33:20.049Z,63.70
2019-04-03T01:34:19.925Z,63.84
2019-04-03T01:35:20.009Z,63.49
2019-04-03T01:36:20.105Z,63.46
2019-04-03T01:37:19.951Z,63.74
2019-04-03T01:38:19.985Z,63.75
2019-04-03T01:39:21.020Z,63.87
2019-04-03T01:40:20.888Z,64.38
2019-04-03T01:41:21.223Z,63.97
2019-04-03T01:42:22.172Z,64.18
2019-04-03T01:43:20.011Z,64.08
2019-04-03T01:44:20.034Z,64.58
2019-04-03T01:45:20.088Z,64.85
2019-04-03T01:46:20.272Z,64.45
2019-04-03T01:47:20.094Z,64.05
2019-04-03T01:48:20.094Z,64.34
2019-04-03T01:49:20.076Z,64.36
2019-04-03T01:50:20.104Z,64.56
2019-04-03T01:51:20.149Z,64.50
2019-04-03T01:52:20.132Z,64.30
2019-04-03T01:53:20.129Z,63.73
2019-04-03T01:54:20.159Z,63.28
2019-04-03T01:55:20.155Z,63.67
2019-04-03T01:56:20.174Z,63.27
2019-04-03T01:57:20.214Z,63.57
2019-04-03T01:58:20.304Z,63.29
2019-04-03T01:59:20.222Z,63.58
2019-04-03T02:00:20.267Z,63.74
2019-04-03T02:01:20.226Z,63.68
2019-04-03T02:02:20.245Z,63.34
2019-04-03T02:03:20.287Z,63.60
2019-04-03T02:04:20.281Z,63.58
2019-04-03T02:05:20.272Z,63.97
2019-04-03T02:06:20.301Z,64.02
2019-04-03T02:07:20.293Z,63.99
2019-04-03T02:08:20.311Z,64.07
2019-04-03T02:09:20.354Z,64.05
2019-04-03T02:10:20.351Z,63.79
2019-04-03T02:11:20.365Z,63.67
2019-04-03T02:12:20.533Z,63.75
2019-04-03T02:13:21.887Z,63.61
2019-04-03T02:14:21.768Z,63.91
2019-04-03T02:15:21.554Z,63.94
2019-04-03T02:16:21.414Z,63.65
2019-04-03T02:17:21.841Z,63.83
2019-04-03T02:18:20.509Z,63.49
2019-04-03T02:19:20.423Z,63.91
2019-04-03T02:20:20.446Z,63.84
2019-04-03T02:21:20.835Z,63.82
2019-04-03T02:22:20.489Z,64.11
2019-04-03T02:23:20.495Z,64.22
2019-04-03T02:24:20.503Z,64.08
2019-04-03T02:25:20.518Z,64.35
2019-04-03T02:26:20.707Z,64.06
2019-04-03T02:27:20.627Z,64.52
2019-04-03T02:28:20.559Z,64.57
2019-04-03T02:29:20.571Z,64.16
2019-04-03T02:30:20.638Z,64.09
2019-04-03T02:31:20.600Z,64.46
2019-04-03T02:32:23.271Z,64.57
2019-04-03T02:33:20.810Z,64.30
2019-04-03T02:34:20.609Z,64.09
2019-04-03T02:35:20.587Z,64.49
2019-04-03T02:36:20.607Z,64.39
2019-04-03T02:37:20.632Z,64.40
2019-04-03T02:38:22.557Z,64.45
2019-04-03T02:39:20.625Z,64.22
2019-04-03T02:40:20.924Z,64.59
2019-04-03T02:41:20.597Z,64.25
2019-04-03T02:42:20.621Z,64.35
2019-04-03T02:43:20.839Z,64.10
2019-04-03T02:44:20.599Z,63.98
2019-04-03T02:45:23.372Z,64.05
2019-04-03T02:46:20.628Z,64.38
2019-04-03T02:47:20.606Z,64.09
2019-04-03T02:48:20.685Z,64.10
2019-04-03T02:49:20.894Z,64.29
2019-04-03T02:50:20.627Z,63.90
2019-04-03T02:51:20.682Z,64.50
2019-04-03T02:52:24.172Z,64.25
2019-04-03T02:53:20.652Z,65.00
2019-04-03T02:54:20.628Z,65.09
2019-04-03T02:55:20.619Z,64.92
2019-04-03T02:56:20.627Z,65.07
2019-04-03T02:57:20.838Z,65.32
2019-04-03T02:58:22.247Z,65.25
2019-04-03T02:59:20.625Z,65.70
2019-04-03T03:00:20.646Z,64.94
2019-04-03T03:01:20.715Z,65.46
2019-04-03T03:02:20.607Z,65.36
2019-04-03T03:03:20.635Z,64.89
2019-04-03T03:04:21.979Z,65.80
2019-04-03T03:05:20.606Z,65.84
2019-04-03T03:06:20.653Z,65.92
2019-04-03T03:07:20.617Z,66.02
2019-04-03T03:08:23.009Z,66.11
2019-04-03T03:09:20.750Z,66.56
2019-04-03T03:10:20.710Z,66.58
2019-04-03T03:11:23.255Z,66.13
2019-04-03T03:12:20.636Z,66.07
2019-04-03T03:13:20.603Z,66.10
2019-04-03T03:14:20.625Z,66.13
2019-04-03T03:15:20.652Z,66.07
2019-04-03T03:16:20.636Z,65.87
2019-04-03T03:17:22.531Z,66.04
2019-04-03T03:18:20.646Z,65.84
2019-04-03T03:19:20.612Z,65.58
2019-04-03T03:20:20.643Z,65.51
2019-04-03T03:21:20.664Z,66.07
2019-04-03T03:22:20.932Z,66.15
2019-04-03T03:23:23.422Z,66.51
2019-04-03T03:24:20.801Z,66.25
2019-04-03T03:25:20.635Z,66.12
2019-04-03T03:26:20.748Z,66.37
2019-04-03T03:27:20.676Z,66.85
2019-04-03T03:28:20.636Z,66.29
2019-04-03T03:29:24.870Z,65.86
2019-04-03T03:30:36.174Z,66.41
2019-04-03T03:31:44.354Z,65.92
2019-04-03T03:32:29.089Z,66.25
2019-04-03T03:33:29.988Z,66.43
2019-04-03T03:34:45.210Z,66.43
2019-04-03T03:35:28.934Z,66.63
2019-04-03T03:36:24.482Z,66.61
2019-04-03T03:37:20.995Z,66.63
2019-04-03T03:38:20.664Z,67.06
2019-04-03T03:39:20.675Z,66.59
2019-04-03T03:40:20.649Z,66.26
2019-04-03T03:41:22.690Z,66.83
2019-04-03T03:42:20.721Z,66.75
2019-04-03T03:43:20.787Z,66.76
2019-04-03T03:44:20.650Z,66.90
2019-04-03T03:45:21.443Z,66.37
2019-04-03T03:46:20.654Z,66.97
2019-04-03T03:47:20.669Z,66.82
2019-04-03T03:48:20.830Z,66.95
2019-04-03T03:49:20.644Z,66.84
2019-04-03T03:50:23.901Z,66.78
2019-04-03T03:51:20.729Z,67.02
2019-04-03T03:52:20.655Z,66.84
2019-04-03T03:53:20.680Z,66.43
2019-04-03T03:54:20.672Z,67.11
2019-04-03T03:55:22.790Z,66.68
2019-04-03T03:56:20.673Z,66.37
2019-04-03T03:57:20.699Z,66.49
2019-04-03T03:58:20.667Z,66.46
2019-04-03T03:59:20.663Z,65.98
2019-04-03T04:00:23.244Z,66.69
2019-04-03T04:01:20.893Z,66.52
2019-04-03T04:02:20.663Z,66.51
2019-04-03T04:03:20.694Z,66.56
2019-04-03T04:04:20.663Z,67.09
2019-04-03T04:05:22.837Z,67.00
2019-04-03T04:06:20.696Z,67.32
2019-04-03T04:07:20.661Z,67.10
2019-04-03T04:08:20.707Z,67.35
2019-04-03T04:09:20.721Z,67.33
2019-04-03T04:10:24.005Z,67.45
2019-04-03T04:11:20.928Z,67.90
2019-04-03T04:12:21.016Z,67.87
2019-04-03T04:13:20.641Z,67.33
2019-04-03T04:14:22.827Z,68.22
2019-04-03T04:15:20.695Z,68.30
2019-04-03T04:16:21.106Z,67.63
2019-04-03T04:17:20.926Z,68.00
2019-04-03T04:18:24.022Z,67.63
2019-04-03T04:19:20.674Z,67.71
2019-04-03T04:20:20.946Z,68.08
2019-04-03T04:21:20.830Z,67.96
2019-04-03T04:22:20.700Z,67.64
2019-04-03T04:23:23.013Z,67.66
2019-04-03T04:24:20.706Z,67.11
2019-04-03T04:25:20.667Z,67.31
2019-04-03T04:26:20.682Z,68.07
2019-04-03T04:27:20.705Z,67.51
2019-04-03T04:28:20.694Z,67.93
2019-04-03T04:29:20.681Z,67.06
2019-04-03T04:30:20.852Z,68.23
2019-04-03T04:31:20.671Z,68.03
2019-04-03T04:32:20.669Z,67.81
2019-04-03T04:33:20.834Z,67.79
2019-04-03T04:34:20.692Z,67.42
2019-04-03T04:35:22.031Z,67.66
2019-04-03T04:36:23.398Z,67.72
2019-04-03T04:37:20.679Z,68.03
2019-04-03T04:38:20.896Z,68.23
2019-04-03T04:39:20.716Z,68.26
2019-04-03T04:40:20.712Z,68.13
2019-04-03T04:41:20.684Z,68.36
2019-04-03T04:42:20.741Z,68.11
2019-04-03T04:43:20.656Z,68.53
2019-04-03T04:44:20.686Z,68.77
2019-04-03T04:45:20.776Z,68.03
2019-04-03T04:46:20.675Z,68.15
2019-04-03T04:47:20.742Z,68.29
2019-04-03T04:48:21.327Z,68.19
2019-04-03T04:49:22.351Z,67.88
2019-04-03T04:50:20.814Z,68.45
2019-04-03T04:51:20.776Z,67.67
2019-04-03T04:52:20.682Z,67.64
2019-04-03T04:53:20.701Z,67.39
2019-04-03T04:54:20.698Z,67.39
2019-04-03T04:55:20.681Z,67.70
2019-04-03T04:56:20.714Z,67.94
2019-04-03T04:57:20.790Z,67.49
2019-04-03T04:58:20.700Z,67.74
2019-04-03T04:59:20.739Z,67.56
2019-04-03T05:00:20.783Z,67.74
2019-04-03T05:01:20.675Z,67.52
2019-04-03T05:02:20.717Z,67.58
2019-04-03T05:03:21.821Z,67.34
2019-04-03T05:04:20.704Z,67.22
2019-04-03T05:05:20.704Z,67.53
2019-04-03T05:06:20.729Z,67.47
2019-04-03T05:07:20.701Z,67.39
2019-04-03T05:08:20.708Z,67.26
2019-04-03T05:09:20.759Z,67.70
2019-04-03T05:10:20.687Z,67.42
2019-04-03T05:11:20.714Z,67.45
2019-04-03T05:12:20.743Z,67.09
2019-04-03T05:13:20.694Z,67.25
2019-04-03T05:14:20.891Z,67.62
2019-04-03T05:15:23.474Z,67.22
2019-04-03T05:16:20.958Z,66.86
2019-04-03T05:17:20.777Z,66.68
2019-04-03T05:18:20.725Z,66.89
2019-04-03T05:19:20.707Z,66.92
2019-04-03T05:20:20.728Z,66.75
2019-04-03T05:21:21.717Z,66.89
2019-04-03T05:22:23.217Z,66.94
2019-04-03T05:23:20.771Z,66.57
2019-04-03T05:24:20.882Z,66.81
2019-04-03T05:25:20.717Z,66.05
2019-04-03T05:26:21.543Z,66.17
2019-04-03T05:27:20.755Z,66.22
2019-04-03T05:28:20.725Z,66.43
2019-04-03T05:29:20.752Z,65.81
2019-04-03T05:30:21.045Z,65.84
2019-04-03T05:31:20.721Z,65.73
2019-04-03T05:32:20.916Z,65.53
2019-04-03T05:33:20.751Z,65.63
2019-04-03T05:34:20.705Z,65.96
2019-04-03T05:35:21.244Z,65.50
2019-04-03T05:36:20.796Z,65.25
2019-04-03T05:37:20.908Z,65.44
2019-04-03T05:38:22.503Z,65.41
2019-04-03T05:39:23.465Z,65.00
2019-04-03T05:40:20.706Z,64.55
2019-04-03T05:41:20.723Z,64.55
2019-04-03T05:42:20.727Z,64.05
2019-04-03T05:43:20.738Z,64.23
2019-04-03T05:44:23.225Z,64.46
2019-04-03T05:45:20.752Z,64.41
2019-04-03T05:46:20.721Z,64.16
2019-04-03T05:47:20.740Z,64.48
2019-04-03T05:48:20.743Z,64.40
2019-04-03T05:49:20.735Z,64.19
2019-04-03T05:50:20.768Z,63.67
2019-04-03T05:51:20.751Z,62.99
2019-04-03T05:52:20.732Z,63.14
2019-04-03T05:53:20.760Z,62.98
2019-04-03T05:54:20.748Z,62.52
2019-04-03T05:55:20.933Z,62.21
2019-04-03T05:56:20.758Z,62.27
2019-04-03T05:57:20.775Z,62.69
2019-04-03T05:58:20.734Z,62.76
2019-04-03T05:59:20.742Z,62.64
2019-04-03T06:00:20.762Z,62.62
2019-04-03T06:01:20.739Z,62.74
2019-04-03T06:02:21.996Z,61.88
2019-04-03T06:03:24.695Z,62.37
2019-04-03T06:04:20.737Z,62.22
2019-04-03T06:05:20.757Z,62.00
2019-04-03T06:06:20.789Z,61.80
2019-04-03T06:07:20.951Z,61.29
2019-04-03T06:08:20.777Z,61.21
2019-04-03T06:09:22.368Z,61.15
2019-04-03T06:10:20.743Z,60.97
2019-04-03T06:11:21.075Z,60.79
2019-04-03T06:12:20.876Z,60.38
2019-04-03T06:13:21.033Z,60.16
2019-04-03T06:14:23.199Z,60.09
2019-04-03T06:15:22.065Z,60.14
2019-04-03T06:16:23.404Z,60.38
2019-04-03T06:17:20.761Z,60.85
2019-04-03T06:18:20.834Z,60.20
2019-04-03T06:19:20.770Z,59.97
2019-04-03T06:20:20.804Z,60.15
2019-04-03T06:21:21.167Z,60.10
2019-04-03T06:22:21.988Z,59.47
2019-04-03T06:23:21.418Z,60.10
2019-04-03T06:24:22.286Z,59.57
2019-04-03T06:25:20.815Z,59.64
2019-04-03T06:26:20.783Z,58.95
2019-04-03T06:27:20.800Z,59.06
2019-04-03T06:28:20.750Z,59.78
2019-04-03T06:29:20.797Z,59.39
2019-04-03T06:30:20.897Z,59.41
2019-04-03T06:31:20.768Z,59.04
2019-04-03T06:32:23.725Z,58.38
2019-04-03T06:33:20.765Z,57.18
2019-04-03T06:34:20.758Z,56.08
2019-04-03T06:35:20.772Z,54.98
2019-04-03T06:36:20.793Z,54.21
2019-04-03T06:37:22.218Z,53.07
2019-04-03T06:38:20.783Z,53.92
2019-04-03T06:39:23.423Z,52.45
2019-04-03T06:40:20.765Z,51.27
2019-04-03T06:41:20.784Z,52.02
2019-04-03T06:42:21.025Z,51.82
2019-04-03T06:43:20.784Z,51.10
2019-04-03T06:44:22.692Z,50.38
2019-04-03T06:45:20.808Z,51.52
2019-04-03T06:46:20.751Z,50.45
2019-04-03T06:47:20.783Z,49.41
2019-04-03T06:48:20.788Z,50.89
2019-04-03T06:49:20.775Z,48.99
2019-04-03T06:50:20.804Z,48.88
2019-04-03T06:51:20.803Z,48.88
2019-04-03T06:52:21.504Z,48.00
2019-04-03T06:53:20.867Z,47.62
2019-04-03T06:54:20.933Z,47.34
2019-04-03T06:55:20.843Z,48.05
2019-04-03T06:56:20.872Z,47.24
2019-04-03T06:57:20.873Z,45.71
2019-04-03T06:58:20.848Z,45.44
2019-04-03T06:59:20.901Z,47.21
2019-04-03T07:00:20.909Z,47.04
2019-04-03T07:01:20.882Z,46.48
2019-04-03T07:02:20.929Z,45.74
2019-04-03T07:03:22.792Z,44.87
2019-04-03T07:04:21.363Z,42.30
2019-04-03T07:05:20.954Z,42.51
2019-04-03T07:06:20.963Z,44.13
2019-04-03T07:07:32.590Z,44.15
2019-04-03T07:08:30.102Z,45.18
2019-04-03T07:09:22.814Z,44.57
2019-04-03T07:10:25.744Z,41.74
2019-04-03T07:11:23.788Z,40.98
2019-04-03T07:12:21.006Z,39.08
2019-04-03T07:13:21.100Z,38.80
2019-04-03T07:14:21.280Z,38.63
2019-04-03T07:15:22.364Z,38.24
2019-04-03T07:16:20.966Z,37.44
2019-04-03T07:17:20.991Z,36.03
2019-04-03T07:18:20.991Z,36.68
2019-04-03T07:19:20.985Z,35.41
2019-04-03T07:20:21.256Z,35.04
2019-04-03T07:21:22.754Z,34.90
2019-04-03T07:22:20.999Z,34.52
2019-04-03T07:23:21.018Z,34.33
2019-04-03T07:24:21.042Z,33.93
2019-04-03T07:25:21.048Z,33.97
2019-04-03T07:26:21.080Z,34.16
2019-04-03T07:27:21.172Z,35.48
2019-04-03T07:28:21.063Z,34.52
2019-04-03T07:29:21.097Z,34.57
2019-04-03T07:30:21.756Z,34.42
2019-04-03T07:31:23.247Z,34.01
2019-04-03T07:32:21.143Z,32.16
2019-04-03T07:33:21.160Z,32.41
2019-04-03T07:34:21.116Z,33.08
2019-04-03T07:35:21.110Z,32.61
2019-04-03T07:36:21.155Z,32.91
2019-04-03T07:37:21.128Z,32.80
2019-04-03T07:38:21.830Z,31.91
2019-04-03T07:39:21.128Z,32.51
2019-04-03T07:40:21.410Z,32.26
2019-04-03T07:41:23.309Z,32.70
2019-04-03T07:42:24.324Z,32.68
2019-04-03T07:43:21.107Z,32.84
2019-04-03T07:44:21.161Z,33.87
2019-04-03T07:45:21.156Z,35.33
2019-04-03T07:46:21.107Z,34.39
2019-04-03T07:47:21.152Z,33.71
2019-04-03T07:48:21.136Z,31.92
2019-04-03T07:49:21.291Z,32.13
2019-04-03T07:50:21.161Z,33.40
2019-04-03T07:51:21.139Z,32.09
2019-04-03T07:52:21.113Z,31.93
2019-04-03T07:53:21.109Z,32.42
2019-04-03T07:54:22.008Z,32.86
2019-04-03T07:55:22.145Z,32.77
2019-04-03T07:56:21.292Z,32.79
2019-04-03T07:57:21.293Z,32.93
2019-04-03T07:58:21.118Z,33.28
2019-04-03T07:59:21.153Z,32.22
2019-04-03T08:00:21.164Z,33.14
2019-04-03T08:01:21.143Z,33.62
2019-04-03T08:02:21.230Z,32.03
2019-04-03T08:03:21.619Z,33.44
2019-04-03T08:04:21.989Z,32.41
2019-04-03T08:05:21.141Z,31.74
2019-04-03T08:06:21.170Z,32.62
2019-04-03T08:07:21.153Z,32.00
2019-04-03T08:08:21.465Z,31.37
2019-04-03T08:09:21.438Z,31.25
2019-04-03T08:10:21.119Z,30.58
2019-04-03T08:11:21.176Z,30.40
2019-04-03T08:12:21.193Z,29.92
2019-04-03T08:13:21.155Z,29.77
2019-04-03T08:14:21.254Z,30.20
2019-04-03T08:15:21.153Z,31.39
2019-04-03T08:16:21.156Z,29.21
2019-04-03T08:17:21.193Z,29.97
2019-04-03T08:18:21.839Z,30.87
2019-04-03T08:19:22.982Z,31.35
2019-04-03T08:20:21.207Z,30.04
2019-04-03T08:21:21.179Z,32.09
2019-04-03T08:22:21.304Z,30.85
2019-04-03T08:23:21.159Z,30.71
2019-04-03T08:24:21.182Z,30.85
2019-04-03T08:25:21.163Z,30.65
2019-04-03T08:26:21.198Z,31.83
2019-04-03T08:27:23.353Z,32.72
2019-04-03T08:28:21.174Z,32.59
2019-04-03T08:29:21.168Z,33.29
2019-04-03T08:30:21.309Z,32.23
2019-04-03T08:31:21.179Z,33.04
2019-04-03T08:32:21.193Z,33.29
2019-04-03T08:33:25.602Z,32.29
2019-04-03T08:34:21.167Z,31.55
2019-04-03T08:35:23.064Z,31.19
2019-04-03T08:36:25.290Z,31.03
2019-04-03T08:37:29.748Z,30.42
2019-04-03T08:38:21.546Z,30.50
2019-04-03T08:39:21.403Z,31.08
2019-04-03T08:40:21.194Z,30.67
2019-04-03T08:41:22.141Z,30.81
2019-04-03T08:42:21.207Z,30.02
2019-04-03T08:43:21.194Z,29.02
2019-04-03T08:44:21.344Z,29.07
2019-04-03T08:45:22.114Z,28.56
2019-04-03T08:46:21.171Z,29.30
2019-04-03T08:47:21.202Z,28.57
2019-04-03T08:48:21.218Z,29.78
2019-04-03T08:49:21.313Z,29.87
2019-04-03T08:50:21.316Z,28.89
2019-04-03T08:51:21.211Z,30.24
2019-04-03T08:52:21.161Z,29.92
2019-04-03T08:53:21.211Z,29.29
2019-04-03T08:54:21.210Z,28.68
2019-04-03T08:55:21.195Z,29.30
2019-04-03T08:56:21.262Z,29.28
2019-04-03T08:57:21.180Z,29.44
2019-04-03T08:58:22.114Z,29.11
2019-04-03T08:59:21.526Z,30.53
2019-04-03T09:00:21.238Z,30.30
2019-04-03T09:01:21.213Z,29.61
2019-04-03T09:02:21.258Z,29.01
2019-04-03T09:03:21.207Z,30.60
2019-04-03T09:04:21.194Z,31.08
2019-04-03T09:05:21.265Z,31.06
2019-04-03T09:06:22.380Z,30.80
2019-04-03T09:07:21.489Z,29.61
2019-04-03T09:08:21.590Z,29.31
2019-04-03T09:09:21.284Z,30.20
2019-04-03T09:10:21.333Z,31.00
2019-04-03T09:11:21.304Z,30.86
2019-04-03T09:12:21.309Z,29.72
2019-04-03T09:13:23.345Z,28.76
2019-04-03T09:14:21.382Z,29.38
2019-04-03T09:15:21.551Z,29.40
2019-04-03T09:16:21.297Z,28.26
2019-04-03T09:17:21.280Z,28.04
2019-04-03T09:18:21.329Z,27.60
2019-04-03T09:19:21.469Z,27.73
2019-04-03T09:20:21.340Z,29.86
2019-04-03T09:21:21.705Z,28.52
2019-04-03T09:22:22.186Z,29.25
2019-04-03T09:23:21.415Z,27.82
2019-04-03T09:24:21.597Z,27.89
2019-04-03T09:25:21.457Z,27.63
2019-04-03T09:26:21.345Z,26.55
2019-04-03T09:27:21.393Z,27.17
2019-04-03T09:28:21.588Z,28.66
2019-04-03T09:29:21.340Z,29.12
2019-04-03T09:30:21.644Z,28.05
2019-04-03T09:31:21.329Z,26.92
2019-04-03T09:32:22.751Z,27.17
2019-04-03T09:33:22.929Z,28.42
2019-04-03T09:34:21.334Z,26.39
2019-04-03T09:35:21.344Z,26.34
2019-04-03T09:36:21.511Z,27.17
2019-04-03T09:37:21.352Z,27.44
2019-04-03T09:38:21.386Z,26.90
2019-04-03T09:39:21.695Z,27.05
2019-04-03T09:40:21.447Z,28.70
2019-04-03T09:41:21.536Z,28.46
2019-04-03T09:42:21.823Z,27.77
2019-04-03T09:43:22.234Z,27.97
2019-04-03T09:44:24.249Z,26.83
2019-04-03T09:45:21.383Z,26.18
2019-04-03T09:46:21.392Z,25.24
2019-04-03T09:47:21.360Z,24.59
2019-04-03T09:48:21.354Z,24.87
2019-04-03T09:49:21.367Z,26.65
2019-04-03T09:50:22.592Z,27.79
2019-04-03T09:51:22.799Z,26.91
2019-04-03T09:52:23.137Z,27.28
2019-04-03T09:53:21.345Z,27.31
2019-04-03T09:54:21.363Z,27.07
2019-04-03T09:55:21.349Z,26.02
2019-04-03T09:56:21.392Z,25.30
2019-04-03T09:57:21.368Z,27.43
2019-04-03T09:58:21.552Z,27.54
2019-04-03T09:59:21.366Z,27.82
2019-04-03T10:00:21.625Z,29.17
2019-04-03T10:01:21.769Z,27.74
2019-04-03T10:02:21.425Z,26.65
2019-04-03T10:03:23.469Z,26.58
2019-04-03T10:04:21.570Z,27.26
2019-04-03T10:05:21.638Z,27.36
2019-04-03T10:06:21.455Z,28.92
2019-04-03T10:07:21.754Z,29.28
2019-04-03T10:08:21.590Z,27.64
2019-04-03T10:09:21.532Z,27.62
2019-04-03T10:10:21.477Z,28.19
2019-04-03T10:11:21.494Z,30.14
2019-04-03T10:12:22.708Z,29.40
2019-04-03T10:13:24.514Z,28.93
2019-04-03T10:14:21.709Z,27.64
2019-04-03T10:15:21.921Z,28.52
2019-04-03T10:16:21.505Z,29.63
2019-04-03T10:17:21.513Z,30.00
2019-04-03T10:18:22.176Z,29.42
2019-04-03T10:19:21.533Z,28.87
2019-04-03T10:20:21.563Z,27.81
2019-04-03T10:21:21.549Z,28.26
2019-04-03T10:22:23.758Z,29.43
2019-04-03T10:23:21.535Z,28.27
2019-04-03T10:24:21.550Z,28.94
2019-04-03T10:25:21.585Z,27.69
2019-04-03T10:26:21.583Z,27.66
2019-04-03T10:27:21.583Z,27.58
2019-04-03T10:28:21.538Z,28.41
2019-04-03T10:29:21.897Z,28.07
2019-04-03T10:30:22.371Z,28.25
2019-04-03T10:31:23.377Z,29.28
2019-04-03T10:32:21.570Z,29.47
2019-04-03T10:33:21.544Z,28.06
2019-04-03T10:34:21.531Z,29.57
2019-04-03T10:35:21.635Z,28.77
2019-04-03T10:36:21.571Z,26.34
2019-04-03T10:37:21.545Z,26.66
2019-04-03T10:38:21.643Z,25.84
2019-04-03T10:39:21.569Z,27.77
2019-04-03T10:40:23.653Z,28.04
2019-04-03T10:41:21.611Z,27.56
2019-04-03T10:42:21.559Z,27.85
2019-04-03T10:43:21.552Z,27.95
2019-04-03T10:44:21.845Z,28.45
2019-04-03T10:45:21.572Z,28.79
2019-04-03T10:46:21.549Z,28.18
2019-04-03T10:47:25.284Z,26.34
2019-04-03T10:48:21.591Z,27.37
2019-04-03T10:49:21.645Z,27.34
2019-04-03T10:50:21.909Z,29.00
2019-04-03T10:51:21.930Z,30.21
2019-04-03T10:52:21.549Z,30.32
2019-04-03T10:53:21.836Z,31.01
2019-04-03T10:54:21.928Z,32.91
2019-04-03T10:55:21.560Z,31.38
2019-04-03T10:56:21.585Z,29.86
2019-04-03T10:57:21.792Z,29.84
2019-04-03T10:58:21.570Z,29.32
2019-04-03T10:59:21.574Z,27.93
2019-04-03T11:00:22.074Z,28.92
2019-04-03T11:01:21.581Z,29.10
2019-04-03T11:02:21.605Z,29.52
2019-04-03T11:03:21.757Z,29.35
2019-04-03T11:04:21.771Z,28.99
2019-04-03T11:05:21.588Z,29.00
2019-04-03T11:06:21.576Z,28.25
2019-04-03T11:07:21.568Z,27.34
2019-04-03T11:08:21.622Z,28.71
2019-04-03T11:09:21.667Z,28.37
2019-04-03T11:10:23.487Z,28.16
2019-04-03T11:11:21.579Z,29.15
2019-04-03T11:12:21.595Z,29.64
2019-04-03T11:13:21.588Z,30.11
2019-04-03T11:14:21.602Z,29.49
2019-04-03T11:15:21.653Z,28.88
2019-04-03T11:16:21.571Z,29.62
2019-04-03T11:17:21.956Z,29.44
2019-04-03T11:18:21.857Z,28.90
2019-04-03T11:19:21.593Z,29.62
2019-04-03T11:20:21.771Z,29.28
2019-04-03T11:21:21.614Z,29.61
2019-04-03T11:22:21.587Z,29.67
2019-04-03T11:23:36.051Z,29.29
2019-04-03T11:24:21.638Z,28.93
2019-04-03T11:25:21.689Z,29.29
2019-04-03T11:26:24.032Z,29.20
2019-04-03T11:27:25.061Z,28.84
2019-04-03T11:28:21.676Z,28.90
2019-04-03T11:29:21.612Z,30.96
2019-04-03T11:30:23.844Z,30.82
2019-04-03T11:31:26.657Z,29.86
2019-04-03T11:32:23.183Z,27.97
2019-04-03T11:33:21.606Z,29.76
2019-04-03T11:34:21.602Z,30.30
2019-04-03T11:35:22.397Z,29.84
2019-04-03T11:36:23.289Z,29.22
2019-04-03T11:37:21.828Z,28.89
2019-04-03T11:38:27.009Z,28.29
2019-04-03T11:39:21.952Z,27.40
2019-04-03T11:40:24.228Z,27.18
2019-04-03T11:41:23.513Z,26.68
2019-04-03T11:42:25.214Z,25.89
2019-04-03T11:43:21.917Z,27.43
2019-04-03T11:44:21.672Z,29.29
2019-04-03T11:45:21.644Z,28.44
2019-04-03T11:46:21.826Z,28.70
2019-04-03T11:47:21.674Z,29.70
2019-04-03T11:48:21.635Z,28.97
2019-04-03T11:49:21.642Z,27.80
2019-04-03T11:50:23.472Z,28.90
2019-04-03T11:51:21.642Z,27.44
2019-04-03T11:52:21.783Z,26.81
2019-04-03T11:53:21.676Z,26.67
2019-04-03T11:54:21.726Z,26.11
2019-04-03T11:55:21.662Z,28.32
2019-04-03T11:56:21.766Z,29.70
2019-04-03T11:57:21.833Z,28.57
2019-04-03T11:58:22.423Z,29.13
2019-04-03T11:59:23.711Z,28.11
2019-04-03T12:00:21.975Z,26.99
2019-04-03T12:01:21.856Z,26.68
2019-04-03T12:02:21.826Z,29.78
2019-04-03T12:03:21.983Z,30.11
2019-04-03T12:04:21.706Z,28.69
2019-04-03T12:05:21.700Z,29.13
2019-04-03T12:06:21.966Z,28.66
2019-04-03T12:07:22.856Z,26.99
2019-04-03T12:08:21.780Z,27.43
2019-04-03T12:09:21.706Z,28.38
2019-04-03T12:10:21.667Z,28.41
2019-04-03T12:11:21.700Z,28.13
2019-04-03T12:12:21.669Z,27.76
2019-04-03T12:13:21.990Z,26.03
2019-04-03T12:14:21.657Z,26.91
2019-04-03T12:15:22.291Z,27.08
2019-04-03T12:16:24.019Z,27.68
2019-04-03T12:17:21.712Z,27.24
2019-04-03T12:18:21.967Z,27.16
2019-04-03T12:19:21.648Z,27.32
2019-04-03T12:20:21.676Z,27.05
2019-04-03T12:21:21.731Z,27.63
2019-04-03T12:22:21.993Z,27.35
2019-04-03T12:23:21.687Z,25.13
2019-04-03T12:24:21.684Z,26.05
2019-04-03T12:25:21.651Z,27.15
2019-04-03T12:26:21.678Z,26.16
2019-04-03T12:27:21.711Z,25.92
2019-04-03T12:28:21.820Z,26.23
2019-04-03T12:29:22.727Z,25.98
2019-04-03T12:30:21.706Z,25.08
2019-04-03T12:31:21.659Z,25.08
2019-04-03T12:32:21.695Z,25.53
2019-04-03T12:33:21.901Z,25.36
2019-04-03T12:34:22.997Z,26.94
2019-04-03T12:35:21.783Z,25.34
2019-04-03T12:36:21.694Z,25.51
2019-04-03T12:37:24.188Z,25.71
2019-04-03T12:38:22.513Z,23.96
2019-04-03T12:39:22.278Z,24.50
2019-04-03T12:40:21.689Z,26.22
2019-04-03T12:41:22.367Z,25.91
2019-04-03T12:42:21.713Z,25.60
2019-04-03T12:43:21.928Z,26.45
2019-04-03T12:44:22.013Z,25.90
2019-04-03T12:45:21.731Z,26.01
2019-04-03T12:46:22.040Z,24.81
2019-04-03T12:47:21.707Z,25.97
2019-04-03T12:48:21.885Z,26.44
2019-04-03T12:49:22.818Z,26.27
2019-04-03T12:50:21.767Z,26.09
2019-04-03T12:51:21.781Z,25.18
2019-04-03T12:52:22.026Z,23.99